createdAt,value
2018-02-15T00:00:16.198Z,14.10
2018-02-15T00:01:16.164Z,13.90
2018-02-15T00:02:16.117Z,15.60
2018-02-15T00:03:16.080Z,12.80
2018-02-15T00:04:16.035Z,13.90
2018-02-15T00:05:15.998Z,12.40
2018-02-15T00:06:15.964Z,14.20
2018-02-15T00:07:15.914Z,12.80
2018-02-15T00:08:15.880Z,13.00
2018-02-15T00:09:15.830Z,13.70
2018-02-15T00:10:15.791Z,13.00
2018-02-15T00:11:15.767Z,13.30
2018-02-15T00:12:15.704Z,12.90
2018-02-15T00:13:15.666Z,13.30
2018-02-15T00:14:15.627Z,13.20
2018-02-15T00:15:15.584Z,13.60
2018-02-15T00:16:15.539Z,13.70
2018-02-15T00:17:15.499Z,12.30
2018-02-15T00:18:15.470Z,13.50
2018-02-15T00:19:15.417Z,13.50
2018-02-15T00:20:15.375Z,14.30
2018-02-15T00:21:15.333Z,14.10
2018-02-15T00:22:15.294Z,14.90
2018-02-15T00:23:15.253Z,15.50
2018-02-15T00:24:15.211Z,15.00
2018-02-15T00:25:15.171Z,14.50
2018-02-15T00:26:15.129Z,14.50
2018-02-15T00:27:15.088Z,14.50
2018-02-15T00:28:15.047Z,16.70
2018-02-15T00:29:15.008Z,16.10
2018-02-15T00:30:14.975Z,15.60
2018-02-15T00:31:14.922Z,16.00
2018-02-15T00:32:14.885Z,15.30
2018-02-15T00:33:14.841Z,15.60
2018-02-15T00:34:14.805Z,14.40
2018-02-15T00:35:14.760Z,15.30
2018-02-15T00:36:14.723Z,16.30
2018-02-15T00:37:14.675Z,15.30
2018-02-15T00:38:14.634Z,15.80
2018-02-15T00:39:14.595Z,15.50
2018-02-15T00:40:14.554Z,16.90
2018-02-15T00:41:14.511Z,15.90
2018-02-15T00:42:14.471Z,15.30
2018-02-15T00:43:14.431Z,16.00
2018-02-15T00:44:14.386Z,16.80
2018-02-15T00:45:14.346Z,14.70
2018-02-15T00:46:14.316Z,15.70
2018-02-15T00:47:14.267Z,14.80
2018-02-15T00:48:14.224Z,15.20
2018-02-15T00:49:14.188Z,15.00
2018-02-15T00:50:14.141Z,14.90
2018-02-15T00:51:14.100Z,14.90
2018-02-15T00:52:14.068Z,15.00
2018-02-15T00:53:14.020Z,14.30
2018-02-15T00:54:13.978Z,14.00
2018-02-15T00:55:13.936Z,14.00
2018-02-15T00:56:13.895Z,14.90
2018-02-15T00:57:13.853Z,13.60
2018-02-15T00:58:13.820Z,14.30
2018-02-15T00:59:13.774Z,14.60
2018-02-15T01:00:13.731Z,14.20
2018-02-15T01:01:13.691Z,14.00
2018-02-15T01:02:13.649Z,14.20
2018-02-15T01:03:13.608Z,14.50
2018-02-15T01:04:13.570Z,14.70
2018-02-15T01:05:13.529Z,13.60
2018-02-15T01:06:13.483Z,15.50
2018-02-15T01:07:13.444Z,15.20
2018-02-15T01:08:13.403Z,13.80
2018-02-15T01:09:13.390Z,13.80
2018-02-15T01:10:13.327Z,13.00
2018-02-15T01:11:13.279Z,15.30
2018-02-15T01:12:13.246Z,13.90
2018-02-15T01:13:13.198Z,13.70
2018-02-15T01:14:13.159Z,14.50
2018-02-15T01:15:13.113Z,14.00
2018-02-15T01:16:13.072Z,14.30
2018-02-15T01:17:13.033Z,15.10
2018-02-15T01:18:12.994Z,15.00
2018-02-15T01:19:12.952Z,13.70
2018-02-15T01:20:12.908Z,12.90
2018-02-15T01:21:12.865Z,14.90
2018-02-15T01:22:12.832Z,15.00
2018-02-15T01:23:12.786Z,13.70
2018-02-15T01:24:12.748Z,13.70
2018-02-15T01:25:12.700Z,14.70
2018-02-15T01:26:12.664Z,13.50
2018-02-15T01:27:12.666Z,13.80
2018-02-15T01:28:12.576Z,14.30
2018-02-15T01:29:12.545Z,15.10
2018-02-15T01:30:12.498Z,14.60
2018-02-15T01:31:12.456Z,13.90
2018-02-15T01:32:12.414Z,14.00
2018-02-15T01:33:12.381Z,13.60
2018-02-15T01:34:12.333Z,14.80
2018-02-15T01:35:12.295Z,13.10
2018-02-15T01:36:12.252Z,13.30
2018-02-15T01:37:12.209Z,12.80
2018-02-15T01:38:12.172Z,15.10
2018-02-15T01:39:12.127Z,13.80
2018-02-15T01:40:12.088Z,13.40
2018-02-15T01:41:12.045Z,14.00
2018-02-15T01:42:12.033Z,14.30
2018-02-15T01:43:11.967Z,15.00
2018-02-15T01:44:11.924Z,15.00
2018-02-15T01:45:11.880Z,14.60
2018-02-15T01:46:11.845Z,14.00
2018-02-15T01:47:11.799Z,13.40
2018-02-15T01:48:11.796Z,13.70
2018-02-15T01:49:11.715Z,13.60
2018-02-15T01:50:11.721Z,14.00
2018-02-15T01:51:11.637Z,12.30
2018-02-15T01:52:11.596Z,11.80
2018-02-15T01:53:11.551Z,11.90
2018-02-15T01:54:11.511Z,13.90
2018-02-15T01:55:11.470Z,13.10
2018-02-15T01:56:11.431Z,12.70
2018-02-15T01:57:11.386Z,13.70
2018-02-15T01:58:11.363Z,14.10
2018-02-15T01:59:11.306Z,13.70
2018-02-15T02:00:11.264Z,13.30
2018-02-15T02:01:11.227Z,12.70
2018-02-15T02:02:11.181Z,13.00
2018-02-15T02:03:11.144Z,12.50
2018-02-15T02:04:11.101Z,12.90
2018-02-15T02:05:11.060Z,13.40
2018-02-15T02:06:11.018Z,11.90
2018-02-15T02:07:10.977Z,12.20
2018-02-15T02:08:11.514Z,13.30
2018-02-15T02:09:10.896Z,12.70
2018-02-15T02:10:10.851Z,13.30
2018-02-15T02:11:10.820Z,13.40
2018-02-15T02:12:10.772Z,13.20
2018-02-15T02:13:10.733Z,13.00
2018-02-15T02:14:10.691Z,12.30
2018-02-15T02:15:10.649Z,12.30
2018-02-15T02:16:10.607Z,12.70
2018-02-15T02:17:10.567Z,12.00
2018-02-15T02:18:10.526Z,13.60
2018-02-15T02:19:10.484Z,13.70
2018-02-15T02:20:10.445Z,13.70
2018-02-15T02:21:10.401Z,13.20
2018-02-15T02:22:10.366Z,12.00
2018-02-15T02:23:10.320Z,12.90
2018-02-15T02:24:10.278Z,13.40
2018-02-15T02:25:10.240Z,12.40
2018-02-15T02:26:10.203Z,12.40
2018-02-15T02:27:10.154Z,12.20
2018-02-15T02:28:10.122Z,13.80
2018-02-15T02:29:10.074Z,12.70
2018-02-15T02:30:10.035Z,13.30
2018-02-15T02:31:09.991Z,14.70
2018-02-15T02:32:09.953Z,12.60
2018-02-15T02:33:09.911Z,14.30
2018-02-15T02:34:09.870Z,13.70
2018-02-15T02:35:09.834Z,13.10
2018-02-15T02:36:09.785Z,12.80
2018-02-15T02:37:09.746Z,13.20
2018-02-15T02:38:09.707Z,12.60
2018-02-15T02:39:09.674Z,14.20
2018-02-15T02:40:09.622Z,14.10
2018-02-15T02:41:09.584Z,13.70
2018-02-15T02:42:09.542Z,13.20
2018-02-15T02:43:09.496Z,12.30
2018-02-15T02:44:09.454Z,12.90
2018-02-15T02:45:09.422Z,11.60
2018-02-15T02:46:09.382Z,12.40
2018-02-15T02:47:09.332Z,12.50
2018-02-15T02:48:09.294Z,12.70
2018-02-15T02:49:09.253Z,13.40
2018-02-15T02:50:09.211Z,11.80
2018-02-15T02:51:09.207Z,12.40
2018-02-15T02:52:09.130Z,12.40
2018-02-15T02:53:09.086Z,12.50
2018-02-15T02:54:09.045Z,12.20
2018-02-15T02:55:09.004Z,12.40
2018-02-15T02:56:08.966Z,12.80
2018-02-15T02:57:08.924Z,12.80
2018-02-15T02:58:08.883Z,12.30
2018-02-15T02:59:08.842Z,13.30
2018-02-15T03:00:08.800Z,13.00
2018-02-15T03:01:08.756Z,12.90
2018-02-15T03:02:08.728Z,12.10
2018-02-15T03:03:08.677Z,12.50
2018-02-15T03:04:08.633Z,12.80
2018-02-15T03:05:08.593Z,13.20
2018-02-15T03:06:08.556Z,14.10
2018-02-15T03:07:08.513Z,12.50
2018-02-15T03:08:08.469Z,13.30
2018-02-15T03:09:08.428Z,13.40
2018-02-15T03:10:08.389Z,14.30
2018-02-15T03:11:08.347Z,13.40
2018-02-15T03:12:08.302Z,14.90
2018-02-15T03:13:08.264Z,12.40
2018-02-15T03:14:08.233Z,13.50
2018-02-15T03:15:08.182Z,15.00
2018-02-15T03:16:08.142Z,15.30
2018-02-15T03:17:08.096Z,15.50
2018-02-15T03:18:08.058Z,16.60
2018-02-15T03:19:08.017Z,16.50
2018-02-15T03:20:07.974Z,15.50
2018-02-15T03:21:07.933Z,15.40
2018-02-15T03:22:07.889Z,14.60
2018-02-15T03:23:07.850Z,14.90
2018-02-15T03:24:07.808Z,17.10
2018-02-15T03:25:07.805Z,17.00
2018-02-15T03:26:07.723Z,18.30
2018-02-15T03:27:07.685Z,17.80
2018-02-15T03:28:07.640Z,18.30
2018-02-15T03:29:07.606Z,18.20
2018-02-15T03:30:07.560Z,19.40
2018-02-15T03:31:07.517Z,18.70
2018-02-15T03:32:07.473Z,18.40
2018-02-15T03:33:07.432Z,20.90
2018-02-15T03:34:07.393Z,21.00
2018-02-15T03:35:07.351Z,20.60
2018-02-15T03:36:07.307Z,21.10
2018-02-15T03:37:07.265Z,22.00
2018-02-15T03:38:07.224Z,21.30
2018-02-15T03:39:07.184Z,24.20
2018-02-15T03:40:07.144Z,26.30
2018-02-15T03:41:07.099Z,24.30
2018-02-15T03:42:07.092Z,27.40
2018-02-15T03:43:07.014Z,27.20
2018-02-15T03:44:06.974Z,28.10
2018-02-15T03:45:06.930Z,30.70
2018-02-15T03:46:06.889Z,31.40
2018-02-15T03:47:06.847Z,32.40
2018-02-15T03:48:06.806Z,32.00
2018-02-15T03:49:06.763Z,33.60
2018-02-15T03:50:06.719Z,36.90
2018-02-15T03:51:06.681Z,39.40
2018-02-15T03:52:06.634Z,39.00
2018-02-15T03:53:06.592Z,39.00
2018-02-15T03:54:06.567Z,38.00
2018-02-15T03:55:06.508Z,40.70
2018-02-15T03:56:06.468Z,41.20
2018-02-15T03:57:06.426Z,44.40
2018-02-15T03:58:06.380Z,42.80
2018-02-15T03:59:06.340Z,41.70
2018-02-15T04:00:06.296Z,42.50
2018-02-15T04:01:06.257Z,44.80
2018-02-15T04:02:06.212Z,45.60
2018-02-15T04:03:06.174Z,43.00
2018-02-15T04:04:06.129Z,47.20
2018-02-15T04:05:06.088Z,44.40
2018-02-15T04:06:06.059Z,44.60
2018-02-15T04:07:06.002Z,46.40
2018-02-15T04:08:05.959Z,47.20
2018-02-15T04:09:05.918Z,45.60
2018-02-15T04:10:05.876Z,44.70
2018-02-15T04:11:05.836Z,45.40
2018-02-15T04:12:05.792Z,46.10
2018-02-15T04:13:05.754Z,47.00
2018-02-15T04:14:05.707Z,45.90
2018-02-15T04:15:05.666Z,45.60
2018-02-15T04:16:05.629Z,45.90
2018-02-15T04:17:05.585Z,48.20
2018-02-15T04:18:05.540Z,47.80
2018-02-15T04:19:05.499Z,47.90
2018-02-15T04:20:05.455Z,50.60
2018-02-15T04:21:05.412Z,50.80
2018-02-15T04:22:05.370Z,50.80
2018-02-15T04:23:05.333Z,52.30
2018-02-15T04:24:05.297Z,49.80
2018-02-15T04:25:05.243Z,50.10
2018-02-15T04:26:05.242Z,53.40
2018-02-15T04:27:05.162Z,50.40
2018-02-15T04:28:05.116Z,53.30
2018-02-15T04:29:05.079Z,52.70
2018-02-15T04:30:05.036Z,54.60
2018-02-15T04:31:04.990Z,52.90
2018-02-15T04:32:04.949Z,54.50
2018-02-15T04:33:04.908Z,49.60
2018-02-15T04:34:04.868Z,54.00
2018-02-15T04:35:04.823Z,58.30
2018-02-15T04:36:04.780Z,51.00
2018-02-15T04:37:04.739Z,55.20
2018-02-15T04:38:04.696Z,50.10
2018-02-15T04:39:05.050Z,55.80
2018-02-15T04:40:04.626Z,57.80
2018-02-15T04:41:04.578Z,57.80
2018-02-15T04:42:04.538Z,56.10
2018-02-15T04:43:04.489Z,55.00
2018-02-15T04:44:04.446Z,53.20
2018-02-15T04:45:04.406Z,55.90
2018-02-15T04:46:04.361Z,51.30
2018-02-15T04:47:04.320Z,53.90
2018-02-15T04:48:04.274Z,55.80
2018-02-15T04:49:04.232Z,56.80
2018-02-15T04:50:04.193Z,53.80
2018-02-15T04:51:04.152Z,56.90
2018-02-15T04:52:04.108Z,55.50
2018-02-15T04:53:04.067Z,57.50
2018-02-15T04:54:04.023Z,57.10
2018-02-15T04:55:03.980Z,55.40
2018-02-15T04:56:03.941Z,57.60
2018-02-15T04:57:03.901Z,58.10
2018-02-15T04:58:03.856Z,55.90
2018-02-15T04:59:03.816Z,58.00
2018-02-15T05:00:03.780Z,51.50
2018-02-15T05:01:03.731Z,57.10
2018-02-15T05:02:03.685Z,59.70
2018-02-15T05:03:03.647Z,58.90
2018-02-15T05:04:03.601Z,56.60
2018-02-15T05:05:03.560Z,54.40
2018-02-15T05:06:03.519Z,56.90
2018-02-15T05:07:03.474Z,55.60
2018-02-15T05:08:03.438Z,50.10
2018-02-15T05:09:03.390Z,51.60
2018-02-15T05:10:03.353Z,59.40
2018-02-15T05:11:03.306Z,54.50
2018-02-15T05:12:03.270Z,53.30
2018-02-15T05:13:03.260Z,54.00
2018-02-15T05:14:03.181Z,53.50
2018-02-15T05:15:03.141Z,54.10
2018-02-15T05:16:03.097Z,55.10
2018-02-15T05:17:03.056Z,59.70
2018-02-15T05:18:03.011Z,59.70
2018-02-15T05:19:02.978Z,60.60
2018-02-15T05:20:02.926Z,49.70
2018-02-15T05:21:02.894Z,54.80
2018-02-15T05:22:02.846Z,53.90
2018-02-15T05:23:02.802Z,58.10
2018-02-15T05:24:02.758Z,53.70
2018-02-15T05:25:02.717Z,58.40
2018-02-15T05:26:02.676Z,52.00
2018-02-15T05:27:02.632Z,55.90
2018-02-15T05:28:02.591Z,56.80
2018-02-15T05:29:02.551Z,56.10
2018-02-15T05:30:02.543Z,55.10
2018-02-15T05:31:02.464Z,54.10
2018-02-15T05:32:02.425Z,53.30
2018-02-15T05:33:02.386Z,53.30
2018-02-15T05:34:02.338Z,57.50
2018-02-15T05:35:02.297Z,58.80
2018-02-15T05:36:02.253Z,57.80
2018-02-15T05:37:02.218Z,59.90
2018-02-15T05:38:02.169Z,58.20
2018-02-15T05:39:02.129Z,58.10
2018-02-15T05:40:02.087Z,59.20
2018-02-15T05:41:02.048Z,58.00
2018-02-15T05:42:02.003Z,54.20
2018-02-15T05:43:01.963Z,52.20
2018-02-15T05:44:01.918Z,55.70
2018-02-15T05:45:01.875Z,55.80
2018-02-15T05:46:01.835Z,55.90
2018-02-15T05:47:01.792Z,55.40
2018-02-15T05:48:01.749Z,50.70
2018-02-15T05:49:01.707Z,53.40
2018-02-15T05:50:01.671Z,56.10
2018-02-15T05:51:01.624Z,55.90
2018-02-15T05:52:01.582Z,50.50
2018-02-15T05:53:01.555Z,55.90
2018-02-15T05:54:01.499Z,53.50
2018-02-15T05:55:01.455Z,54.40
2018-02-15T05:56:01.412Z,49.30
2018-02-15T05:57:01.374Z,50.10
2018-02-15T05:58:01.329Z,53.40
2018-02-15T05:59:01.287Z,51.80
2018-02-15T06:00:01.243Z,53.40
2018-02-15T06:01:01.202Z,53.30
2018-02-15T06:02:01.163Z,47.40
2018-02-15T06:03:01.283Z,52.20
2018-02-15T06:04:01.114Z,53.20
2018-02-15T06:05:01.033Z,52.90
2018-02-15T06:06:00.993Z,49.20
2018-02-15T06:07:00.963Z,52.10
2018-02-15T06:08:00.929Z,50.10
2018-02-15T06:09:00.877Z,52.70
2018-02-15T06:10:00.836Z,50.00
2018-02-15T06:11:00.791Z,50.90
2018-02-15T06:12:00.751Z,51.40
2018-02-15T06:13:00.708Z,52.10
2018-02-15T06:14:00.664Z,48.40
2018-02-15T06:15:00.624Z,53.00
2018-02-15T06:16:00.587Z,48.80
2018-02-15T06:17:00.541Z,48.20
2018-02-15T06:18:00.498Z,49.60
2018-02-15T06:19:00.454Z,52.70
2018-02-15T06:20:00.412Z,57.80
2018-02-15T06:21:00.373Z,54.80
2018-02-15T06:22:00.328Z,37.00
2018-02-15T06:23:00.287Z,48.80
2018-02-15T06:24:00.246Z,52.20
2018-02-15T06:25:00.201Z,54.30
2018-02-15T06:26:00.160Z,52.80
2018-02-15T06:27:00.125Z,48.90
2018-02-15T06:28:00.077Z,52.90
2018-02-15T06:29:00.035Z,52.20
2018-02-15T06:29:59.990Z,49.80
2018-02-15T06:30:59.950Z,53.90
2018-02-15T06:31:59.907Z,52.10
2018-02-15T06:32:59.870Z,52.80
2018-02-15T06:33:59.836Z,47.10
2018-02-15T06:34:59.785Z,49.70
2018-02-15T06:35:59.743Z,46.80
2018-02-15T06:36:59.718Z,48.90
2018-02-15T06:37:59.655Z,48.20
2018-02-15T06:38:59.612Z,51.90
2018-02-15T06:39:59.569Z,51.80
2018-02-15T06:40:59.536Z,51.60
2018-02-15T06:41:59.520Z,47.80
2018-02-15T06:42:59.446Z,41.50
2018-02-15T06:43:59.405Z,49.20
2018-02-15T06:44:59.358Z,48.20
2018-02-15T06:45:59.318Z,46.90
2018-02-15T06:46:59.276Z,50.40
2018-02-15T06:47:59.231Z,53.10
2018-02-15T06:48:59.191Z,50.40
2018-02-15T06:49:59.148Z,44.60
2018-02-15T06:50:59.106Z,50.10
2018-02-15T06:51:59.065Z,49.50
2018-02-15T06:52:59.024Z,52.30
2018-02-15T06:53:58.981Z,49.80
2018-02-15T06:54:58.947Z,49.80
2018-02-15T06:55:58.896Z,53.60
2018-02-15T06:56:58.854Z,49.60
2018-02-15T06:57:58.811Z,52.10
2018-02-15T06:58:58.771Z,50.80
2018-02-15T06:59:58.727Z,50.60
2018-02-15T07:00:58.686Z,50.50
2018-02-15T07:01:58.657Z,51.70
2018-02-15T07:02:58.601Z,48.80
2018-02-15T07:03:58.559Z,50.90
2018-02-15T07:04:58.517Z,48.20
2018-02-15T07:05:58.474Z,48.70
2018-02-15T07:06:58.436Z,50.20
2018-02-15T07:07:58.392Z,50.50
2018-02-15T07:08:58.353Z,47.70
2018-02-15T07:09:58.315Z,46.10
2018-02-15T07:10:58.266Z,44.60
2018-02-15T07:11:58.224Z,42.10
2018-02-15T07:12:58.181Z,46.50
2018-02-15T07:13:58.141Z,45.10
2018-02-15T07:14:58.097Z,44.70
2018-02-15T07:15:58.055Z,46.10
2018-02-15T07:16:58.016Z,48.40
2018-02-15T07:17:57.971Z,43.50
2018-02-15T07:18:57.932Z,46.70
2018-02-15T07:19:57.888Z,44.20
2018-02-15T07:20:57.845Z,44.00
2018-02-15T07:21:57.804Z,44.90
2018-02-15T07:22:57.761Z,45.40
2018-02-15T07:23:57.718Z,40.60
2018-02-15T07:24:57.679Z,39.60
2018-02-15T07:25:57.652Z,41.40
2018-02-15T07:26:57.594Z,44.30
2018-02-15T07:27:57.550Z,43.10
2018-02-15T07:28:57.509Z,40.90
2018-02-15T07:29:57.497Z,43.60
2018-02-15T07:30:57.429Z,42.00
2018-02-15T07:31:57.383Z,40.30
2018-02-15T07:32:57.343Z,39.20
2018-02-15T07:33:57.317Z,39.00
2018-02-15T07:34:57.258Z,40.30
2018-02-15T07:35:57.217Z,42.30
2018-02-15T07:36:57.174Z,41.90
2018-02-15T07:37:57.132Z,39.70
2018-02-15T07:38:57.091Z,36.00
2018-02-15T07:39:57.049Z,39.40
2018-02-15T07:40:57.011Z,39.20
2018-02-15T07:41:56.964Z,37.80
2018-02-15T07:42:56.923Z,38.00
2018-02-15T07:43:56.881Z,32.80
2018-02-15T07:44:56.840Z,35.40
2018-02-15T07:45:56.797Z,39.10
2018-02-15T07:46:56.758Z,36.90
2018-02-15T07:47:56.714Z,35.00
2018-02-15T07:48:56.679Z,37.20
2018-02-15T07:49:56.629Z,34.60
2018-02-15T07:50:56.589Z,38.00
2018-02-15T07:51:56.545Z,34.60
2018-02-15T07:52:56.504Z,33.00
2018-02-15T07:53:56.464Z,32.40
2018-02-15T07:54:56.422Z,31.10
2018-02-15T07:55:56.383Z,35.00
2018-02-15T07:56:56.341Z,36.30
2018-02-15T07:57:56.302Z,32.90
2018-02-15T07:58:56.261Z,33.50
2018-02-15T07:59:56.231Z,31.30
2018-02-15T08:00:56.172Z,35.20
2018-02-15T08:01:56.129Z,34.20
2018-02-15T08:02:56.089Z,31.60
2018-02-15T08:03:56.050Z,30.60
2018-02-15T08:04:56.004Z,32.00
2018-02-15T08:05:56.009Z,32.90
2018-02-15T08:06:55.921Z,30.90
2018-02-15T08:07:55.882Z,31.20
2018-02-15T08:08:55.836Z,30.30
2018-02-15T08:09:55.796Z,32.30
2018-02-15T08:10:55.754Z,30.60
2018-02-15T08:11:55.721Z,31.50
2018-02-15T08:12:55.670Z,28.90
2018-02-15T08:13:55.629Z,31.30
2018-02-15T08:14:55.587Z,32.10
2018-02-15T08:15:55.545Z,28.20
2018-02-15T08:16:55.504Z,29.10
2018-02-15T08:17:55.463Z,28.40
2018-02-15T08:18:55.423Z,30.20
2018-02-15T08:19:55.430Z,29.70
2018-02-15T08:20:55.346Z,30.90
2018-02-15T08:21:55.299Z,29.80
2018-02-15T08:22:55.267Z,29.10
2018-02-15T08:23:55.215Z,29.70
2018-02-15T08:24:55.172Z,28.20
2018-02-15T08:25:55.131Z,26.90
2018-02-15T08:26:55.088Z,32.20
2018-02-15T08:27:55.045Z,33.20
2018-02-15T08:28:55.021Z,29.50
2018-02-15T08:29:54.962Z,32.30
2018-02-15T08:30:54.921Z,33.50
2018-02-15T08:31:54.881Z,31.20
2018-02-15T08:32:54.838Z,31.80
2018-02-15T08:33:54.796Z,30.20
2018-02-15T08:34:54.755Z,32.30
2018-02-15T08:35:54.724Z,32.40
2018-02-15T08:36:54.674Z,32.90
2018-02-15T08:37:54.631Z,34.10
2018-02-15T08:38:54.589Z,34.20
2018-02-15T08:39:54.546Z,34.70
2018-02-15T08:40:54.506Z,33.70
2018-02-15T08:41:54.465Z,34.30
2018-02-15T08:42:54.424Z,34.10
2018-02-15T08:43:54.395Z,33.00
2018-02-15T08:44:54.342Z,36.20
2018-02-15T08:45:54.298Z,33.50
2018-02-15T08:46:54.259Z,35.30
2018-02-15T08:47:54.214Z,36.60
2018-02-15T08:48:54.175Z,34.30
2018-02-15T08:49:54.130Z,35.30
2018-02-15T08:50:54.104Z,34.60
2018-02-15T08:51:54.047Z,35.20
2018-02-15T08:52:54.007Z,33.60
2018-02-15T08:53:53.965Z,33.60
2018-02-15T08:54:53.923Z,35.90
2018-02-15T08:55:53.881Z,33.70
2018-02-15T08:56:53.839Z,33.60
2018-02-15T08:57:53.799Z,35.40
2018-02-15T08:58:53.769Z,36.60
2018-02-15T08:59:53.715Z,33.20
2018-02-15T09:00:53.673Z,35.50
2018-02-15T09:01:53.632Z,37.70
2018-02-15T09:02:53.596Z,33.90
2018-02-15T09:03:53.550Z,37.80
2018-02-15T09:04:53.508Z,39.30
2018-02-15T09:05:53.477Z,38.80
2018-02-15T09:06:53.426Z,38.40
2018-02-15T09:07:53.386Z,37.80
2018-02-15T09:08:53.343Z,35.50
2018-02-15T09:09:53.302Z,37.40
2018-02-15T09:10:53.261Z,36.30
2018-02-15T09:11:53.219Z,38.60
2018-02-15T09:12:53.178Z,38.70
2018-02-15T09:13:53.137Z,36.10
2018-02-15T09:14:53.106Z,35.90
2018-02-15T09:15:53.054Z,37.60
2018-02-15T09:16:53.014Z,38.20
2018-02-15T09:17:52.970Z,38.30
2018-02-15T09:18:52.930Z,40.10
2018-02-15T09:19:52.887Z,37.50
2018-02-15T09:20:52.854Z,37.50
2018-02-15T09:21:52.806Z,39.00
2018-02-15T09:22:52.764Z,38.00
2018-02-15T09:23:52.767Z,39.30
2018-02-15T09:24:52.680Z,36.70
2018-02-15T09:25:52.639Z,39.80
2018-02-15T09:26:52.601Z,37.70
2018-02-15T09:27:52.557Z,37.20
2018-02-15T09:28:52.515Z,39.40
2018-02-15T09:29:52.473Z,40.50
2018-02-15T09:30:52.432Z,37.60
2018-02-15T09:31:52.402Z,39.90
2018-02-15T09:32:52.349Z,39.90
2018-02-15T09:33:52.309Z,38.90
2018-02-15T09:34:52.268Z,40.50
2018-02-15T09:35:52.225Z,39.70
2018-02-15T09:36:52.184Z,42.80
2018-02-15T09:37:52.143Z,40.00
2018-02-15T09:38:52.111Z,40.40
2018-02-15T09:39:52.062Z,40.10
2018-02-15T09:40:52.021Z,41.00
2018-02-15T09:41:51.978Z,43.20
2018-02-15T09:42:51.937Z,43.40
2018-02-15T09:43:51.897Z,41.40
2018-02-15T09:44:51.856Z,39.70
2018-02-15T09:45:51.827Z,41.70
2018-02-15T09:46:51.773Z,43.30
2018-02-15T09:47:51.732Z,40.30
2018-02-15T09:48:51.691Z,42.50
2018-02-15T09:49:51.649Z,41.10
2018-02-15T09:50:51.609Z,42.50
2018-02-15T09:51:51.581Z,43.20
2018-02-15T09:52:51.525Z,40.00
2018-02-15T09:53:51.485Z,40.90
2018-02-15T09:54:51.444Z,40.10
2018-02-15T09:55:51.401Z,41.30
2018-02-15T09:56:51.360Z,38.70
2018-02-15T09:57:51.319Z,39.00
2018-02-15T09:58:51.300Z,39.30
2018-02-15T09:59:51.237Z,41.30
2018-02-15T10:00:51.195Z,39.60
2018-02-15T10:01:51.647Z,39.60
2018-02-15T10:02:51.115Z,40.00
2018-02-15T10:03:51.076Z,38.70
2018-02-15T10:04:51.032Z,39.10
2018-02-15T10:05:50.991Z,39.30
2018-02-15T10:06:50.960Z,38.80
2018-02-15T10:07:50.908Z,37.80
2018-02-15T10:08:50.866Z,38.40
2018-02-15T10:09:50.826Z,36.30
2018-02-15T10:10:50.784Z,38.00
2018-02-15T10:11:50.744Z,37.00
2018-02-15T10:12:50.710Z,36.80
2018-02-15T10:13:50.662Z,37.10
2018-02-15T10:14:50.621Z,35.80
2018-02-15T10:15:50.583Z,35.50
2018-02-15T10:16:50.539Z,35.40
2018-02-15T10:17:50.501Z,35.80
2018-02-15T10:18:50.761Z,36.10
2018-02-15T10:19:50.416Z,34.40
2018-02-15T10:20:50.374Z,32.60
2018-02-15T10:21:50.352Z,33.10
2018-02-15T10:22:50.315Z,32.30
2018-02-15T10:23:50.253Z,31.20
2018-02-15T10:24:50.212Z,30.70
2018-02-15T10:25:50.171Z,28.90
2018-02-15T10:26:50.130Z,29.40
2018-02-15T10:27:50.090Z,28.80
2018-02-15T10:28:50.047Z,28.20
2018-02-15T10:29:50.007Z,28.40
2018-02-15T10:30:49.966Z,27.30
2018-02-15T10:31:49.931Z,28.40
2018-02-15T10:32:49.885Z,27.80
2018-02-15T10:33:49.843Z,27.80
2018-02-15T10:34:49.804Z,25.60
2018-02-15T10:35:49.763Z,26.10
2018-02-15T10:36:49.721Z,27.80
2018-02-15T10:37:49.687Z,26.50
2018-02-15T10:38:49.639Z,27.10
2018-02-15T10:39:49.601Z,26.50
2018-02-15T10:40:49.561Z,27.40
2018-02-15T10:41:49.517Z,24.80
2018-02-15T10:42:49.478Z,25.80
2018-02-15T10:43:49.436Z,25.20
2018-02-15T10:44:49.404Z,24.10
2018-02-15T10:45:49.355Z,24.20
2018-02-15T10:46:49.314Z,23.50
2018-02-15T10:47:49.273Z,25.40
2018-02-15T10:48:49.233Z,23.30
2018-02-15T10:49:49.192Z,22.90
2018-02-15T10:50:49.152Z,22.20
2018-02-15T10:51:49.112Z,22.20
2018-02-15T10:52:49.077Z,20.90
2018-02-15T10:53:49.028Z,20.60
2018-02-15T10:54:48.990Z,20.20
2018-02-15T10:55:48.946Z,20.60
2018-02-15T10:56:48.907Z,19.80
2018-02-15T10:57:48.867Z,19.20
2018-02-15T10:58:48.826Z,19.50
2018-02-15T10:59:48.785Z,19.80
2018-02-15T11:00:48.745Z,18.20
2018-02-15T11:01:48.704Z,19.30
2018-02-15T11:02:48.662Z,17.40
2018-02-15T11:03:48.624Z,18.70
2018-02-15T11:04:48.582Z,18.00
2018-02-15T11:05:48.542Z,18.50
2018-02-15T11:06:48.502Z,19.20
2018-02-15T11:07:48.469Z,18.30
2018-02-15T11:08:48.420Z,17.40
2018-02-15T11:09:48.380Z,16.20
2018-02-15T11:10:48.340Z,17.20
2018-02-15T11:11:48.300Z,16.60
2018-02-15T11:12:48.260Z,17.30
2018-02-15T11:13:48.218Z,15.50
2018-02-15T11:14:48.185Z,15.70
2018-02-15T11:15:48.140Z,16.20
2018-02-15T11:16:48.133Z,15.50
2018-02-15T11:17:48.057Z,17.30
2018-02-15T11:18:48.015Z,17.30
2018-02-15T11:19:47.973Z,16.70
2018-02-15T11:20:47.937Z,15.50
2018-02-15T11:21:47.902Z,14.80
2018-02-15T11:22:47.855Z,14.70
2018-02-15T11:23:47.811Z,15.10
2018-02-15T11:24:47.772Z,14.40
2018-02-15T11:25:47.736Z,13.20
2018-02-15T11:26:47.693Z,13.60
2018-02-15T11:27:47.655Z,13.50
2018-02-15T11:28:47.611Z,13.80
2018-02-15T11:29:47.600Z,13.10
2018-02-15T11:30:47.532Z,13.50
2018-02-15T11:31:47.489Z,13.10
2018-02-15T11:32:47.450Z,14.00
2018-02-15T11:33:47.411Z,12.50
2018-02-15T11:34:47.371Z,12.40
2018-02-15T11:35:47.329Z,12.60
2018-02-15T11:36:47.290Z,12.90
2018-02-15T11:37:47.247Z,12.80
2018-02-15T11:38:47.224Z,12.40
2018-02-15T11:39:47.170Z,13.50
2018-02-15T11:40:47.129Z,13.30
2018-02-15T11:41:47.093Z,13.20
2018-02-15T11:42:47.049Z,12.20
2018-02-15T11:43:47.008Z,12.50
2018-02-15T11:44:46.969Z,12.90
2018-02-15T11:45:46.929Z,13.10
2018-02-15T11:46:46.893Z,13.30
2018-02-15T11:47:46.852Z,13.70
2018-02-15T11:48:46.809Z,12.70
2018-02-15T11:49:46.768Z,12.50
2018-02-15T11:50:46.726Z,13.50
2018-02-15T11:51:46.688Z,12.90
2018-02-15T11:52:46.652Z,13.10
2018-02-15T11:53:46.609Z,13.80
2018-02-15T11:54:46.611Z,13.60
2018-02-15T11:55:46.528Z,12.40
2018-02-15T11:56:46.488Z,12.60
2018-02-15T11:57:46.449Z,12.00
2018-02-15T11:58:46.407Z,11.50
2018-02-15T11:59:46.369Z,12.70
2018-02-15T12:00:46.329Z,12.10
2018-02-15T12:01:46.290Z,11.60
2018-02-15T12:02:46.255Z,12.50
2018-02-15T12:03:46.209Z,13.20
2018-02-15T12:04:46.168Z,12.50
2018-02-15T12:05:46.132Z,12.90
2018-02-15T12:06:46.088Z,12.90
2018-02-15T12:07:46.056Z,10.80
2018-02-15T12:08:46.016Z,11.50
2018-02-15T12:09:45.971Z,10.70
2018-02-15T12:10:45.931Z,10.00
2018-02-15T12:11:45.891Z,10.70
2018-02-15T12:12:45.852Z,10.20
2018-02-15T12:13:45.814Z,10.30
2018-02-15T12:14:45.774Z,9.90
2018-02-15T12:15:45.735Z,9.00
2018-02-15T12:16:45.696Z,10.60
2018-02-15T12:17:45.665Z,9.10
2018-02-15T12:18:45.615Z,9.30
2018-02-15T12:19:45.577Z,9.70
2018-02-15T12:20:45.535Z,9.40
2018-02-15T12:21:45.495Z,9.60
2018-02-15T12:22:45.454Z,9.70
2018-02-15T12:23:45.416Z,9.80
2018-02-15T12:24:45.396Z,10.80
2018-02-15T12:25:45.339Z,9.20
2018-02-15T12:26:45.298Z,9.00
2018-02-15T12:27:45.258Z,9.30
2018-02-15T12:28:45.220Z,9.20
2018-02-15T12:29:45.194Z,9.30
2018-02-15T12:30:45.139Z,9.40
2018-02-15T12:31:46.281Z,9.40
2018-02-15T12:32:45.060Z,8.70
2018-02-15T12:33:45.022Z,8.70
2018-02-15T12:34:44.981Z,8.30
2018-02-15T12:35:44.939Z,8.60
2018-02-15T12:36:44.902Z,8.30
2018-02-15T12:37:44.862Z,8.10
2018-02-15T12:38:44.824Z,7.90
2018-02-15T12:39:44.784Z,8.70
2018-02-15T12:40:44.746Z,8.00
2018-02-15T12:41:44.718Z,8.10
2018-02-15T12:42:44.665Z,8.30
2018-02-15T12:43:44.649Z,8.10
2018-02-15T12:44:44.585Z,8.90
2018-02-15T12:45:44.547Z,8.60
2018-02-15T12:46:44.507Z,8.40
2018-02-15T12:47:44.466Z,8.90
2018-02-15T12:48:44.428Z,9.80
2018-02-15T12:49:44.387Z,9.00
2018-02-15T12:50:44.423Z,8.30
2018-02-15T12:51:44.309Z,8.50
2018-02-15T12:52:44.281Z,8.50